Victory — WDF7020 — position and weather

sailwx.info

Track history (hours):
 
Tides and Currents Weather Stations Pressure Air Temp Water Temp Dewpoint Dewpoint Depression Visibility Wind Speed Wind Dir Waves Ship Positions

Victory

Owner: Grand River Navigation Company, Inc., Traverse City, MI. More information available from US FCC via Universal Licensing System and Coast Guard Vessel Documentation Center.

Last reported at 2017-Sep-24 01:00 UTC. Time now 2017-Sep-24 10:13 UTC.
Position N 43°06' W 087°06'.

Length 38 m; draft 6.4 m.

MMSI: 367480260.

Wind from 170 at 12 knots

Barometer 1019.2 mb
Air temperature 26.1 ° C
Visibility: greater than 2.2 NM

Date/timePositionNaut miles runAvg speedWind from/ knotsBaromVisibWave heightAir tempDewpointWater temp
2017-Sep-24 01:00N 43°06' W 087°06'1212.0 170 / 121019.2 2.2 26.1
2017-Sep-24 00:00N 43°18' W 087°06'7 7.4 180 / 111019.2 2.2 26.1
2017-Sep-23 23:00N 43°24' W 087°00'1212.0 180 / 121019.2 2.2 26.6
2017-Sep-23 22:00N 43°36' W 087°00'1312.8 180 / 121019.2 2.2 26.1
2017-Sep-23 21:00N 43°48' W 086°54'19 9.3 1019.6 2.2 24.4
2017-Sep-23 19:00N 44°06' W 086°48'13 6.4 190 / 161020.3 2.2 22.2
2017-Sep-23 17:00N 44°18' W 086°42'5711.3 190 / 151020.610.8 18.8
2017-Sep-23 12:00N 45°12' W 086°18'13 6.4 210 / 191018.6 5.4 19.9
2017-Sep-23 10:00N 45°24' W 086°12'2019.9 220 / 181017.9 5.4 19.9
2017-Sep-23 09:00N 45°42' W 086°00'36 8.9 190 / 211016.5 5.4 22.7
2017-Sep-23 05:00N 45°54' W 085°12'49 1.0 110 / 101018.227.0 20.5
2017-Sep-21 02:34N 46°14' W 084°07'2 8.7
2017-Sep-21 02:21N 46°12' W 084°07'16 9.2
2017-Sep-21 00:39N 45°60' W 083°53'0 1.8
2017-Sep-21 00:29N 45°59' W 083°53'0 0.4
2017-Sep-21 00:00N 45°59' W 083°53'0 0.0
2017-Sep-20 23:30N 45°59' W 083°53'0 0.1
2017-Sep-20 23:00N 45°59' W 083°53'0 0.0
2017-Sep-20 22:30N 45°59' W 083°53'0 0.1
2017-Sep-20 22:00N 45°59' W 083°53'0 0.0
2017-Sep-20 21:30N 45°59' W 083°53'0 0.0
2017-Sep-20 21:00N 45°59' W 083°53'0 0.0
2017-Sep-20 20:28N 45°59' W 083°53'0 0.1
2017-Sep-20 20:00N 45°59' W 083°53'0 0.0
2017-Sep-20 19:30N 45°59' W 083°53'0 0.0
2017-Sep-20 19:00N 45°59' W 083°53'0 0.0
2017-Sep-20 18:30N 45°59' W 083°53'0 0.0
2017-Sep-20 17:03N 45°59' W 083°53'0 0.0
2017-Sep-20 16:35N 45°59' W 083°53'0 0.0
2017-Sep-20 15:53N 45°59' W 083°53'0 0.0
2017-Sep-20 15:25N 45°59' W 083°53'0 0.0
2017-Sep-20 14:49N 45°59' W 083°53'0 0.0
2017-Sep-20 12:06N 45°59' W 083°53'0 0.0
2017-Sep-20 12:00N 45°59' W 083°53'0 0.0
2017-Sep-20 11:27N 45°59' W 083°53'0 0.0
2017-Sep-20 10:20N 45°59' W 083°53'0 0.2
2017-Sep-20 10:00N 45°59' W 083°53'2 2.5
2017-Sep-20 09:04N 45°57' W 083°54'111.0
2017-Sep-20 08:59N 45°56' W 083°54'611.0
2017-Sep-20 08:29N 45°51' W 083°55'510.7
2017-Sep-20 08:00N 45°46' W 083°57'1 1.2
2017-Sep-20 07:00N 45°44' W 083°56'0 0.2
2017-Sep-20 06:30N 45°44' W 083°56'0 0.2
2017-Sep-20 05:05N 45°45' W 083°56'0 0.2
2017-Sep-20 05:00N 45°45' W 083°56'3 5.3
2017-Sep-20 04:30N 45°47' W 083°56'24 9.4
2017-Sep-20 01:56N 46°11' W 084°05'23 1.1
2017-Sep-19 04:41N 46°31' W 084°23'0 1.8
2017-Sep-19 04:30N 46°30' W 084°23'1 0.9
2017-Sep-19 02:58N 46°30' W 084°21'0 0.9
2017-Sep-19 02:30N 46°30' W 084°20'2 3.1
2017-Sep-19 02:00N 46°30' W 084°18'3 5.9
2017-Sep-19 01:30N 46°27' W 084°16'4 7.6
2017-Sep-19 01:00N 46°24' W 084°14'4 8.8
2017-Sep-19 00:30N 46°20' W 084°11'6 6.7
2017-Sep-18 23:38N 46°15' W 084°06'2 9.1
2017-Sep-18 23:26N 46°13' W 084°07'13 9.2
2017-Sep-18 22:01N 46°03' W 083°56'110.5
2017-Sep-18 21:58N 46°02' W 083°55'4 8.8
2017-Sep-18 21:30N 45°59' W 083°53'1912.8
2017-Sep-18 20:00N 45°48' W 083°30'2 5.5 270 / 131020.627.0 18.3
2017-Sep-18 19:42N 45°48' W 083°32'310.6
2017-Sep-18 19:28N 45°47' W 083°29'2315.6
2017-Sep-18 18:00N 45°36' W 083°00'54 9.0 010 / 121021.327.0 20.5
2017-Sep-18 12:00N 44°48' W 082°24'6 6.0 360 / 161016.9 5.4 16.6
2017-Sep-18 11:00N 44°42' W 082°24'1312.7 350 / 161019.9 5.4 17.2
2017-Sep-18 10:00N 44°30' W 082°18'1212.0 350 / 161019.6 5.4 17.7
2017-Sep-18 09:00N 44°18' W 082°18'   010 / 201018.9 18.3
2017-Sep-16 00:00N 43°24' W 082°24'7 7.4 170 / 111020.6 5.4 22.7
2017-Sep-15 23:00N 43°30' W 082°18'1212.0 140 / 131020.3 5.4 23.8
2017-Sep-15 22:00N 43°42' W 082°18'1212.0 150 / 131019.9 2.2 24.4
2017-Sep-15 21:00N 43°54' W 082°18'19 9.3 160 / 101020.3 2.2 24.4
2017-Sep-15 19:00N 44°12' W 082°12'1312.7 180 / 121019.910.8 22.2
2017-Sep-15 18:00N 44°24' W 082°18'6 6.0 220 / 111020.310.8 22.2
2017-Sep-15 17:00N 44°30' W 082°18'18 9.2 230 / 121020.310.8 20.5
2017-Sep-15 15:00N 44°48' W 082°24'1212.0 230 / 141020.3 20.5
2017-Sep-15 14:00N 45°00' W 082°24'1312.7 230 / 121019.6 21.1
2017-Sep-15 13:00N 45°12' W 082°30'13 6.4 240 / 111018.9 2.2 19.9
2017-Sep-15 11:00N 45°24' W 082°36'332.7 240 / 131017.9 2.2 18.3
2017-Sep-15 10:54N 45°25' W 082°40'410.6
2017-Sep-15 10:30N 45°27' W 082°45'4 7.2
2017-Sep-15 10:00N 45°30' W 082°48'365.3 240 / 121017.2 5.4 18.3
2017-Sep-15 09:57N 45°30' W 082°52'510.3
2017-Sep-15 09:27N 45°33' W 082°59'1123.4
2017-Sep-15 09:00N 45°42' W 083°06'7934.0 240 / 131017.2 5.4 18.3
2017-Sep-15 08:59N 45°35' W 083°04'510.5
2017-Sep-15 08:28N 45°38' W 083°11'510.6
2017-Sep-15 08:00N 45°41' W 083°17'1136.7
2017-Sep-15 08:00N 45°42' W 083°18'4 8.3 230 / 131016.5 5.4 18.3
2017-Sep-15 07:28N 45°44' W 083°24'510.2
2017-Sep-15 07:00N 45°46' W 083°29'510.3
2017-Sep-15 06:29N 45°49' W 083°36'610.3
2017-Sep-15 05:57N 45°52' W 083°43'510.2
2017-Sep-15 05:25N 45°54' W 083°50'5 9.1
2017-Sep-15 04:50N 45°59' W 083°53'3 9.5
2017-Sep-15 04:30N 46°02' W 083°55'7 8.5
2017-Sep-15 03:38N 46°08' W 084°01'1 9.7
2017-Sep-15 03:30N 46°09' W 084°02'510.1
2017-Sep-15 03:00N 46°12' W 084°08'4 7.6
2017-Sep-15 02:28N 46°16' W 084°11'40 6.1
2017-Sep-14 20:00N 46°42' W 084°54'2512.7 180 / 161011.5 5.4 23.8
2017-Sep-14 18:00N 46°48' W 085°30'79 9.7 180 / 121011.127.0 25.5
2017-Sep-14 09:55N 46°34' W 087°23'0 0.8
2017-Sep-14 09:30N 46°35' W 087°23'0 0.0
2017-Sep-14 08:54N 46°35' W 087°23'0 0.0
2017-Sep-14 08:29N 46°35' W 087°23'0 0.0
2017-Sep-14 08:00N 46°35' W 087°23'0 0.0
2017-Sep-14 07:28N 46°35' W 087°23'0 0.0
2017-Sep-14 06:44N 46°35' W 087°23'0 0.0
2017-Sep-14 06:28N 46°35' W 087°23'10 1.9
2017-Sep-14 01:25N 46°36' W 087°09'511.0
2017-Sep-14 01:00N 46°37' W 087°03'  
Track history (hours):
 
Tides and Currents Weather Stations Pressure Air Temp Water Temp Dewpoint Dewpoint Depression Visibility Wind Speed Wind Dir Waves Ship Positions

Victory

Owner: Grand River Navigation Company, Inc., Traverse City, MI. More information available from US FCC via Universal Licensing System and Coast Guard Vessel Documentation Center.

Last reported at 2017-Sep-24 01:00 UTC. Time now 2017-Sep-24 10:13 UTC.
Position N 43°06' W 087°06'.

Length 38 m; draft 6.4 m.

MMSI: 367480260.

Wind from 170 at 12 knots

Barometer 1019.2 mb
Air temperature 26.1 ° C
Visibility: greater than 2.2 NM

Date/timePositionNaut miles runAvg speedWind from/ knotsBaromVisibWave heightAir tempDewpointWater temp
2017-Sep-24 01:00N 43°06' W 087°06'1212.0 170 / 121019.2 2.2 26.1
2017-Sep-24 00:00N 43°18' W 087°06'7 7.4 180 / 111019.2 2.2 26.1
2017-Sep-23 23:00N 43°24' W 087°00'1212.0 180 / 121019.2 2.2 26.6
2017-Sep-23 22:00N 43°36' W 087°00'1312.8 180 / 121019.2 2.2 26.1
2017-Sep-23 21:00N 43°48' W 086°54'19 9.3 1019.6 2.2 24.4
2017-Sep-23 19:00N 44°06' W 086°48'13 6.4 190 / 161020.3 2.2 22.2
2017-Sep-23 17:00N 44°18' W 086°42'5711.3 190 / 151020.610.8 18.8
2017-Sep-23 12:00N 45°12' W 086°18'13 6.4 210 / 191018.6 5.4 19.9
2017-Sep-23 10:00N 45°24' W 086°12'2019.9 220 / 181017.9 5.4 19.9
2017-Sep-23 09:00N 45°42' W 086°00'36 8.9 190 / 211016.5 5.4 22.7
2017-Sep-23 05:00N 45°54' W 085°12'49 1.0 110 / 101018.227.0 20.5
2017-Sep-21 02:34N 46°14' W 084°07'2 8.7
2017-Sep-21 02:21N 46°12' W 084°07'16 9.2
2017-Sep-21 00:39N 45°60' W 083°53'0 1.8
2017-Sep-21 00:29N 45°59' W 083°53'0 0.4
2017-Sep-21 00:00N 45°59' W 083°53'0 0.0
2017-Sep-20 23:30N 45°59' W 083°53'0 0.1
2017-Sep-20 23:00N 45°59' W 083°53'0 0.0
2017-Sep-20 22:30N 45°59' W 083°53'0 0.1
2017-Sep-20 22:00N 45°59' W 083°53'0 0.0
2017-Sep-20 21:30N 45°59' W 083°53'0 0.0
2017-Sep-20 21:00N 45°59' W 083°53'0 0.0
2017-Sep-20 20:28N 45°59' W 083°53'0 0.1
2017-Sep-20 20:00N 45°59' W 083°53'0 0.0
2017-Sep-20 19:30N 45°59' W 083°53'0 0.0
2017-Sep-20 19:00N 45°59' W 083°53'0 0.0
2017-Sep-20 18:30N 45°59' W 083°53'0 0.0
2017-Sep-20 17:03N 45°59' W 083°53'0 0.0
2017-Sep-20 16:35N 45°59' W 083°53'0 0.0
2017-Sep-20 15:53N 45°59' W 083°53'0 0.0
2017-Sep-20 15:25N 45°59' W 083°53'0 0.0
2017-Sep-20 14:49N 45°59' W 083°53'0 0.0
2017-Sep-20 12:06N 45°59' W 083°53'0 0.0
2017-Sep-20 12:00N 45°59' W 083°53'0 0.0
2017-Sep-20 11:27N 45°59' W 083°53'0 0.0
2017-Sep-20 10:20N 45°59' W 083°53'0 0.2
2017-Sep-20 10:00N 45°59' W 083°53'2 2.5
2017-Sep-20 09:04N 45°57' W 083°54'111.0
2017-Sep-20 08:59N 45°56' W 083°54'611.0
2017-Sep-20 08:29N 45°51' W 083°55'510.7
2017-Sep-20 08:00N 45°46' W 083°57'1 1.2
2017-Sep-20 07:00N 45°44' W 083°56'0 0.2
2017-Sep-20 06:30N 45°44' W 083°56'0 0.2
2017-Sep-20 05:05N 45°45' W 083°56'0 0.2
2017-Sep-20 05:00N 45°45' W 083°56'3 5.3
2017-Sep-20 04:30N 45°47' W 083°56'24 9.4
2017-Sep-20 01:56N 46°11' W 084°05'23 1.1
2017-Sep-19 04:41N 46°31' W 084°23'0 1.8
2017-Sep-19 04:30N 46°30' W 084°23'1 0.9
2017-Sep-19 02:58N 46°30' W 084°21'0 0.9
2017-Sep-19 02:30N 46°30' W 084°20'2 3.1
2017-Sep-19 02:00N 46°30' W 084°18'3 5.9
2017-Sep-19 01:30N 46°27' W 084°16'4 7.6
2017-Sep-19 01:00N 46°24' W 084°14'4 8.8
2017-Sep-19 00:30N 46°20' W 084°11'6 6.7
2017-Sep-18 23:38N 46°15' W 084°06'2 9.1
2017-Sep-18 23:26N 46°13' W 084°07'13 9.2
2017-Sep-18 22:01N 46°03' W 083°56'110.5
2017-Sep-18 21:58N 46°02' W 083°55'4 8.8
2017-Sep-18 21:30N 45°59' W 083°53'1912.8
2017-Sep-18 20:00N 45°48' W 083°30'2 5.5 270 / 131020.627.0 18.3
2017-Sep-18 19:42N 45°48' W 083°32'310.6
2017-Sep-18 19:28N 45°47' W 083°29'2315.6
2017-Sep-18 18:00N 45°36' W 083°00'54 9.0 010 / 121021.327.0 20.5
2017-Sep-18 12:00N 44°48' W 082°24'6 6.0 360 / 161016.9 5.4 16.6
2017-Sep-18 11:00N 44°42' W 082°24'1312.7 350 / 161019.9 5.4 17.2
2017-Sep-18 10:00N 44°30' W 082°18'1212.0 350 / 161019.6 5.4 17.7
2017-Sep-18 09:00N 44°18' W 082°18'   010 / 201018.9 18.3
2017-Sep-16 00:00N 43°24' W 082°24'7 7.4 170 / 111020.6 5.4 22.7
2017-Sep-15 23:00N 43°30' W 082°18'1212.0 140 / 131020.3 5.4 23.8
2017-Sep-15 22:00N 43°42' W 082°18'1212.0 150 / 131019.9 2.2 24.4
2017-Sep-15 21:00N 43°54' W 082°18'19 9.3 160 / 101020.3 2.2 24.4
2017-Sep-15 19:00N 44°12' W 082°12'1312.7 180 / 121019.910.8 22.2
2017-Sep-15 18:00N 44°24' W 082°18'6 6.0 220 / 111020.310.8 22.2
2017-Sep-15 17:00N 44°30' W 082°18'18 9.2 230 / 121020.310.8 20.5
2017-Sep-15 15:00N 44°48' W 082°24'1212.0 230 / 141020.3 20.5
2017-Sep-15 14:00N 45°00' W 082°24'1312.7 230 / 121019.6 21.1
2017-Sep-15 13:00N 45°12' W 082°30'13 6.4 240 / 111018.9 2.2 19.9
2017-Sep-15 11:00N 45°24' W 082°36'332.7 240 / 131017.9 2.2 18.3
2017-Sep-15 10:54N 45°25' W 082°40'410.6
2017-Sep-15 10:30N 45°27' W 082°45'4 7.2
2017-Sep-15 10:00N 45°30' W 082°48'365.3 240 / 121017.2 5.4 18.3
2017-Sep-15 09:57N 45°30' W 082°52'510.3
2017-Sep-15 09:27N 45°33' W 082°59'1123.4
2017-Sep-15 09:00N 45°42' W 083°06'7934.0 240 / 131017.2 5.4 18.3
2017-Sep-15 08:59N 45°35' W 083°04'510.5
2017-Sep-15 08:28N 45°38' W 083°11'510.6
2017-Sep-15 08:00N 45°41' W 083°17'1136.7
2017-Sep-15 08:00N 45°42' W 083°18'4 8.3 230 / 131016.5 5.4 18.3
2017-Sep-15 07:28N 45°44' W 083°24'510.2
2017-Sep-15 07:00N 45°46' W 083°29'510.3
2017-Sep-15 06:29N 45°49' W 083°36'610.3
2017-Sep-15 05:57N 45°52' W 083°43'510.2
2017-Sep-15 05:25N 45°54' W 083°50'5 9.1
2017-Sep-15 04:50N 45°59' W 083°53'3 9.5
2017-Sep-15 04:30N 46°02' W 083°55'7 8.5
2017-Sep-15 03:38N 46°08' W 084°01'1 9.7
2017-Sep-15 03:30N 46°09' W 084°02'510.1
2017-Sep-15 03:00N 46°12' W 084°08'4 7.6
2017-Sep-15 02:28N 46°16' W 084°11'40 6.1
2017-Sep-14 20:00N 46°42' W 084°54'2512.7 180 / 161011.5 5.4 23.8
2017-Sep-14 18:00N 46°48' W 085°30'79 9.7 180 / 121011.127.0 25.5
2017-Sep-14 09:55N 46°34' W 087°23'0 0.8
2017-Sep-14 09:30N 46°35' W 087°23'0 0.0
2017-Sep-14 08:54N 46°35' W 087°23'0 0.0
2017-Sep-14 08:29N 46°35' W 087°23'0 0.0
2017-Sep-14 08:00N 46°35' W 087°23'0 0.0
2017-Sep-14 07:28N 46°35' W 087°23'0 0.0
2017-Sep-14 06:44N 46°35' W 087°23'0 0.0
2017-Sep-14 06:28N 46°35' W 087°23'10 1.9
2017-Sep-14 01:25N 46°36' W 087°09'511.0
2017-Sep-14 01:00N 46°37' W 087°03'  

Dump ship's entire track history